createdAt,value
2023-02-02T00:01:20.123Z,-1.93
2023-02-02T00:03:47.130Z,-1.89
2023-02-02T00:06:14.093Z,-1.98
2023-02-02T00:08:40.946Z,-1.92
2023-02-02T00:11:08.183Z,-1.95
2023-02-02T00:13:35.069Z,-1.95
2023-02-02T00:16:20.592Z,-1.93
2023-02-02T00:18:48.637Z,-1.93
2023-02-02T00:21:15.518Z,-1.95
2023-02-02T00:23:42.386Z,-2.04
2023-02-02T00:26:09.657Z,-2.07
2023-02-02T00:28:36.793Z,-2.09
2023-02-02T00:31:03.660Z,-2.06
2023-02-02T00:33:30.534Z,-2.02
2023-02-02T00:35:58.016Z,-2.01
2023-02-02T00:38:25.084Z,-2.03
2023-02-02T00:40:52.659Z,-2.00
2023-02-02T00:43:19.483Z,-1.92
2023-02-02T00:45:47.207Z,-1.91
2023-02-02T00:48:14.060Z,-1.90
2023-02-02T00:50:41.007Z,-1.92
2023-02-02T00:53:07.923Z,-1.89
2023-02-02T00:55:34.780Z,-1.85
2023-02-02T00:58:01.701Z,-1.83
2023-02-02T01:00:28.784Z,-1.86
2023-02-02T01:02:56.290Z,-1.87
2023-02-02T01:05:26.568Z,-1.83
2023-02-02T01:07:53.494Z,-1.86
2023-02-02T01:10:20.438Z,-1.93
2023-02-02T01:12:47.225Z,-1.90
2023-02-02T01:15:14.127Z,-1.94
2023-02-02T01:17:41.514Z,-1.89
2023-02-02T01:20:08.965Z,-1.81
2023-02-02T01:22:35.812Z,-1.78
2023-02-02T01:25:05.110Z,-1.80
2023-02-02T01:27:32.031Z,-1.82
2023-02-02T01:29:59.165Z,-1.77
2023-02-02T01:32:26.020Z,-1.77
2023-02-02T01:34:52.843Z,-1.78
2023-02-02T01:37:19.753Z,-1.73
2023-02-02T01:39:46.625Z,-1.76
2023-02-02T01:42:19.434Z,-1.73
2023-02-02T01:44:58.568Z,-1.69
2023-02-02T01:47:27.224Z,-1.76
2023-02-02T01:49:55.395Z,-1.77
2023-02-02T01:52:24.492Z,-1.87
2023-02-02T01:55:00.873Z,-1.99
2023-02-02T01:57:30.821Z,-1.91
2023-02-02T01:59:59.186Z,-1.96
2023-02-02T02:02:27.878Z,-1.88
2023-02-02T02:04:55.594Z,-1.91
2023-02-02T02:07:23.743Z,-1.98
2023-02-02T02:09:50.544Z,-1.81
2023-02-02T02:12:17.588Z,-1.73
2023-02-02T02:15:04.611Z,-1.72
2023-02-02T02:17:31.959Z,-1.95
2023-02-02T02:20:56.463Z,-1.79
2023-02-02T02:24:01.368Z,-1.67
2023-02-02T02:26:46.875Z,-1.80
2023-02-02T02:29:15.026Z,-1.72
2023-02-02T02:31:51.311Z,-1.69
2023-02-02T02:34:22.528Z,-1.61
2023-02-02T02:36:51.782Z,-1.60
2023-02-02T02:39:19.141Z,-1.61
2023-02-02T02:41:49.276Z,-1.69
2023-02-02T02:44:17.061Z,-4.57
2023-02-02T02:46:46.859Z,-1.59
2023-02-02T02:49:14.224Z,-1.54
2023-02-02T02:51:41.040Z,-1.42
2023-02-02T02:54:08.869Z,-1.38
2023-02-02T02:56:55.550Z,-1.34
2023-02-02T02:59:46.486Z,-1.36
2023-02-02T03:02:17.111Z,-1.32
2023-02-02T03:04:48.133Z,-1.24
2023-02-02T03:07:26.854Z,-1.23
2023-02-02T03:09:55.280Z,-1.19
2023-02-02T03:12:22.123Z,-1.21
2023-02-02T03:14:48.947Z,-1.20
2023-02-02T03:17:15.760Z,-1.19
2023-02-02T03:19:42.517Z,-1.14
2023-02-02T03:22:09.351Z,-1.17
2023-02-02T03:24:36.077Z,-1.18
2023-02-02T03:27:03.014Z,-1.21
2023-02-02T03:29:29.939Z,-1.19
2023-02-02T03:31:56.989Z,-1.17
2023-02-02T03:34:23.853Z,-1.13
2023-02-02T03:36:50.644Z,-1.17
2023-02-02T03:39:17.474Z,-1.17
2023-02-02T03:41:44.261Z,-1.18
2023-02-02T03:44:11.131Z,-1.16
2023-02-02T03:46:38.001Z,-1.14
2023-02-02T03:49:04.892Z,-1.16
2023-02-02T03:51:31.761Z,-1.08
2023-02-02T03:53:58.608Z,-1.14
2023-02-02T03:56:25.406Z,-1.14
2023-02-02T03:58:52.199Z,-1.23
2023-02-02T04:01:26.483Z,-1.31
2023-02-02T04:03:53.488Z,-1.34
2023-02-02T04:06:20.779Z,-1.37
2023-02-02T04:08:47.675Z,-1.33
2023-02-02T04:11:14.528Z,-1.33
2023-02-02T04:13:43.536Z,-1.37
2023-02-02T04:16:10.779Z,-1.28
2023-02-02T04:18:40.481Z,-1.33
2023-02-02T04:21:07.812Z,-1.34
2023-02-02T04:23:35.081Z,-1.30
2023-02-02T04:26:02.032Z,-1.37
2023-02-02T04:28:29.104Z,-1.51
2023-02-02T04:30:56.642Z,-1.60
2023-02-02T04:33:24.474Z,-1.53
2023-02-02T04:35:51.570Z,-1.48
2023-02-02T04:38:18.525Z,-1.44
2023-02-02T04:40:46.319Z,-1.45
2023-02-02T04:43:13.058Z,-1.47
2023-02-02T04:45:39.952Z,-1.48
2023-02-02T04:48:06.879Z,-1.43
2023-02-02T04:50:33.718Z,-1.47
2023-02-02T04:53:00.596Z,-1.55
2023-02-02T04:55:30.670Z,-1.48
2023-02-02T04:57:57.508Z,-1.49
2023-02-02T05:00:24.946Z,-1.42
2023-02-02T05:02:51.909Z,-1.54
2023-02-02T05:05:20.538Z,-1.61
2023-02-02T05:07:47.419Z,-1.53
2023-02-02T05:10:14.315Z,-1.77
2023-02-02T05:12:41.104Z,-1.73
2023-02-02T05:15:08.143Z,-1.78
2023-02-02T05:17:34.917Z,-1.73
2023-02-02T05:20:01.738Z,-1.74
2023-02-02T05:22:28.722Z,-1.77
2023-02-02T05:24:55.497Z,-1.72
2023-02-02T05:27:22.361Z,-1.76
2023-02-02T05:29:49.275Z,-1.75
2023-02-02T05:32:16.298Z,-1.74
2023-02-02T05:34:43.064Z,-1.79
2023-02-02T05:37:09.924Z,-1.75
2023-02-02T05:39:36.686Z,-1.72
2023-02-02T05:42:03.666Z,-1.78
2023-02-02T05:44:30.698Z,-1.88
2023-02-02T05:46:57.496Z,-1.85
2023-02-02T05:49:24.481Z,-1.90
2023-02-02T05:51:53.974Z,-1.98
2023-02-02T05:54:20.937Z,-1.98
2023-02-02T05:56:48.813Z,-1.96
2023-02-02T05:59:15.658Z,-1.95
2023-02-02T06:01:45.811Z,-2.01
2023-02-02T06:04:13.083Z,-1.96
2023-02-02T06:06:40.095Z,-1.87
2023-02-02T06:09:07.353Z,-1.88
2023-02-02T06:11:34.516Z,-1.77
2023-02-02T06:14:01.637Z,-1.78
2023-02-02T06:16:28.503Z,-1.79
2023-02-02T06:18:55.522Z,-1.87
2023-02-02T06:21:24.714Z,-1.73
2023-02-02T06:23:52.182Z,-1.74
2023-02-02T06:26:19.458Z,-1.76
2023-02-02T06:28:50.568Z,-1.69
2023-02-02T06:31:20.645Z,-1.65
2023-02-02T06:33:54.102Z,-1.60
2023-02-02T06:36:21.616Z,-1.54
2023-02-02T06:38:49.500Z,-1.53
2023-02-02T06:41:16.330Z,-1.48
2023-02-02T06:43:43.610Z,-1.44
2023-02-02T06:46:10.424Z,-1.40
2023-02-02T06:48:37.359Z,-1.36
2023-02-02T06:51:05.685Z,-1.32
2023-02-02T06:53:33.065Z,-1.29
2023-02-02T06:56:01.403Z,-1.22
2023-02-02T06:58:28.363Z,-1.18
2023-02-02T07:00:55.254Z,-1.15
2023-02-02T07:03:22.532Z,-1.13
2023-02-02T07:05:50.138Z,-1.11
2023-02-02T07:08:17.235Z,-1.09
2023-02-02T07:11:13.087Z,-1.01
2023-02-02T07:13:31.796Z,-0.91
2023-02-02T07:15:58.795Z,-0.86
2023-02-02T07:18:25.791Z,-0.79
2023-02-02T07:20:52.675Z,-0.68
2023-02-02T07:23:19.553Z,-0.68
2023-02-02T07:25:46.419Z,-0.58
2023-02-02T07:28:13.264Z,-0.54
2023-02-02T07:30:40.101Z,-0.42
2023-02-02T07:33:06.946Z,-0.46
2023-02-02T07:35:34.008Z,-0.37
2023-02-02T07:38:00.798Z,-0.35
2023-02-02T07:40:27.676Z,-0.23
2023-02-02T07:42:54.565Z,-0.10
2023-02-02T07:45:27.095Z,-0.04
2023-02-02T07:47:58.177Z,0.04
2023-02-02T07:50:25.602Z,0.21
2023-02-02T07:52:52.867Z,0.26
2023-02-02T07:55:20.190Z,0.28
2023-02-02T07:57:47.105Z,0.35
2023-02-02T08:00:14.343Z,0.34
2023-02-02T08:02:41.321Z,0.57
2023-02-02T08:05:08.423Z,0.68
2023-02-02T08:07:35.309Z,0.80
2023-02-02T08:10:02.204Z,0.83
2023-02-02T08:12:29.120Z,1.00
2023-02-02T08:14:56.197Z,0.71
2023-02-02T08:17:23.677Z,0.93
2023-02-02T08:19:50.844Z,1.09
2023-02-02T08:22:20.218Z,1.26
2023-02-02T08:24:48.182Z,1.35
2023-02-02T08:27:16.461Z,1.44
2023-02-02T08:29:43.767Z,1.56
2023-02-02T08:32:10.844Z,1.59
2023-02-02T08:34:37.941Z,1.72
2023-02-02T08:37:04.865Z,1.72
2023-02-02T08:39:31.772Z,1.95
2023-02-02T08:41:58.543Z,2.08
2023-02-02T08:44:28.146Z,2.17
2023-02-02T08:47:11.960Z,2.27
2023-02-02T08:49:38.866Z,2.32
2023-02-02T08:52:05.823Z,2.42
2023-02-02T08:54:32.689Z,2.48
2023-02-02T08:56:59.547Z,2.56
2023-02-02T08:59:26.475Z,2.60
2023-02-02T09:01:53.387Z,2.52
2023-02-02T09:04:20.199Z,2.50
2023-02-02T09:06:47.123Z,2.49
2023-02-02T09:09:15.014Z,2.61
2023-02-02T09:11:42.431Z,2.43
2023-02-02T09:14:12.158Z,2.57
2023-02-02T09:16:39.287Z,2.70
2023-02-02T09:19:06.502Z,2.78
2023-02-02T09:21:37.291Z,2.77
2023-02-02T09:24:11.928Z,2.80
2023-02-02T09:26:40.633Z,3.00
2023-02-02T09:29:08.599Z,3.08
2023-02-02T09:31:36.717Z,3.19
2023-02-02T09:34:09.909Z,3.30
2023-02-02T09:36:37.393Z,3.24
2023-02-02T09:39:04.688Z,3.23
2023-02-02T09:41:56.004Z,3.36
2023-02-02T09:44:25.867Z,3.34
2023-02-02T09:47:11.342Z,3.45
2023-02-02T09:49:47.609Z,3.51
2023-02-02T09:52:18.501Z,3.42
2023-02-02T09:54:47.784Z,3.48
2023-02-02T09:57:21.256Z,3.65
2023-02-02T09:59:49.945Z,3.59
2023-02-02T10:02:24.867Z,3.63
2023-02-02T10:04:54.844Z,3.70
2023-02-02T10:07:26.827Z,3.78
2023-02-02T10:09:57.445Z,3.87
2023-02-02T10:12:24.348Z,3.87
2023-02-02T10:14:59.068Z,3.90
2023-02-02T10:17:34.923Z,4.07
2023-02-02T10:20:06.558Z,4.19
2023-02-02T10:22:34.554Z,4.21
2023-02-02T10:25:01.506Z,4.33
2023-02-02T10:27:37.403Z,4.48
2023-02-02T10:30:07.832Z,4.26
2023-02-02T10:32:38.969Z,4.29
2023-02-02T10:35:17.237Z,4.44
2023-02-02T10:37:44.123Z,4.47
2023-02-02T10:40:24.556Z,4.51
2023-02-02T10:43:28.879Z,4.59
2023-02-02T10:45:56.931Z,4.67
2023-02-02T10:48:30.431Z,4.78
2023-02-02T10:50:59.667Z,4.85
2023-02-02T10:53:28.913Z,4.79
2023-02-02T10:56:13.305Z,4.84
2023-02-02T10:58:57.985Z,4.79
2023-02-02T11:01:25.075Z,4.70
2023-02-02T11:04:11.928Z,4.71
2023-02-02T11:06:52.516Z,4.93
2023-02-02T11:09:24.157Z,4.82
2023-02-02T11:11:52.222Z,4.96
2023-02-02T11:14:30.465Z,4.73
2023-02-02T11:17:02.424Z,4.84
2023-02-02T11:19:30.571Z,4.97
2023-02-02T11:21:58.538Z,4.99
2023-02-02T11:24:29.818Z,4.81
2023-02-02T11:26:56.815Z,4.77
2023-02-02T11:29:37.482Z,4.88
2023-02-02T11:32:19.814Z,4.70
2023-02-02T11:34:47.498Z,4.68
2023-02-02T11:37:23.752Z,4.68
2023-02-02T11:39:53.044Z,4.65
2023-02-02T11:42:22.085Z,4.67
2023-02-02T11:44:53.695Z,4.77
2023-02-02T11:47:22.618Z,4.70
2023-02-02T11:49:52.127Z,4.72
2023-02-02T11:52:22.230Z,4.55
2023-02-02T11:54:50.651Z,4.58
2023-02-02T11:57:24.421Z,4.53
2023-02-02T11:59:52.210Z,4.70
2023-02-02T12:02:25.034Z,4.72
2023-02-02T12:04:56.453Z,4.79
2023-02-02T12:07:26.001Z,4.73
2023-02-02T12:09:53.250Z,4.84
2023-02-02T12:12:29.358Z,4.85
2023-02-02T12:15:11.527Z,4.84
2023-02-02T12:17:42.264Z,4.61
2023-02-02T12:20:28.422Z,4.65
2023-02-02T12:23:10.411Z,4.53
2023-02-02T12:25:48.889Z,4.45
2023-02-02T12:28:21.160Z,4.28
2023-02-02T12:30:51.070Z,4.50
2023-02-02T12:33:21.049Z,4.43
2023-02-02T12:36:06.873Z,4.43
2023-02-02T12:38:55.496Z,4.56
2023-02-02T12:41:22.433Z,4.53
2023-02-02T12:43:51.691Z,4.44
2023-02-02T12:46:33.552Z,4.39
2023-02-02T12:49:00.396Z,4.38
2023-02-02T12:52:06.104Z,4.41
2023-02-02T12:54:46.217Z,4.41
2023-02-02T12:57:18.430Z,4.44
2023-02-02T12:59:45.256Z,4.52
2023-02-02T13:02:18.028Z,4.48
2023-02-02T13:04:51.049Z,4.24
2023-02-02T13:07:35.563Z,4.36
2023-02-02T13:10:17.980Z,4.43
2023-02-02T13:12:48.271Z,4.54
2023-02-02T13:15:18.889Z,4.51
2023-02-02T13:17:51.847Z,4.52
2023-02-02T13:20:23.246Z,4.50
2023-02-02T13:22:53.184Z,4.60
2023-02-02T13:25:27.851Z,4.29
2023-02-02T13:27:55.590Z,4.35
2023-02-02T13:30:31.893Z,4.45
2023-02-02T13:33:00.413Z,4.46
2023-02-02T13:35:33.365Z,4.44
2023-02-02T13:38:12.679Z,3.98
2023-02-02T13:40:40.821Z,4.07
2023-02-02T13:43:16.935Z,4.14
2023-02-02T13:46:02.753Z,4.13
2023-02-02T13:48:29.738Z,3.88
2023-02-02T13:50:59.528Z,4.06
2023-02-02T13:53:52.020Z,4.08
2023-02-02T13:56:25.463Z,4.13
2023-02-02T13:58:58.202Z,4.09
2023-02-02T14:01:25.803Z,4.14
2023-02-02T14:03:54.358Z,4.16
2023-02-02T14:06:22.659Z,4.24
2023-02-02T14:08:52.982Z,4.31
2023-02-02T14:11:42.608Z,4.26
2023-02-02T14:14:32.367Z,4.33
2023-02-02T14:17:00.095Z,4.37
2023-02-02T14:19:36.014Z,4.42
2023-02-02T14:22:09.257Z,4.44
2023-02-02T14:24:36.044Z,4.26
2023-02-02T14:27:05.693Z,4.20
2023-02-02T14:29:32.822Z,4.26
2023-02-02T14:32:18.635Z,4.12
2023-02-02T14:34:45.669Z,3.99
2023-02-02T14:37:24.784Z,3.93
2023-02-02T14:39:54.376Z,4.03
2023-02-02T14:42:39.938Z,3.98
2023-02-02T14:45:15.947Z,3.91
2023-02-02T14:47:42.800Z,3.95
2023-02-02T14:50:14.555Z,3.89
2023-02-02T14:52:41.816Z,3.82
2023-02-02T14:55:19.194Z,3.75
2023-02-02T14:57:53.496Z,3.73
2023-02-02T15:00:25.035Z,3.58
2023-02-02T15:02:55.066Z,3.67
2023-02-02T15:05:34.302Z,3.52
2023-02-02T15:08:13.075Z,3.32
2023-02-02T15:10:55.039Z,3.37
2023-02-02T15:13:27.203Z,3.41
2023-02-02T15:16:04.378Z,3.45
2023-02-02T15:18:37.869Z,3.62
2023-02-02T15:21:06.487Z,3.53
2023-02-02T15:23:44.312Z,3.49
2023-02-02T15:26:24.584Z,3.44
2023-02-02T15:28:51.407Z,3.45
2023-02-02T15:31:38.769Z,3.28
2023-02-02T15:34:31.741Z,3.14
2023-02-02T15:37:00.244Z,2.99
2023-02-02T15:39:30.150Z,3.00
2023-02-02T15:42:17.213Z,2.93
2023-02-02T15:44:44.230Z,2.97
2023-02-02T15:47:24.788Z,3.07
2023-02-02T15:49:52.338Z,3.14
2023-02-02T15:52:27.493Z,3.17
2023-02-02T15:54:54.397Z,3.15
2023-02-02T15:57:25.160Z,3.05
2023-02-02T15:59:52.237Z,3.03
2023-02-02T16:02:28.419Z,2.97
2023-02-02T16:04:55.357Z,2.96
2023-02-02T16:07:28.035Z,2.98
2023-02-02T16:09:55.103Z,2.93
2023-02-02T16:12:23.622Z,3.04
2023-02-02T16:14:52.197Z,3.07
2023-02-02T16:17:22.151Z,3.04
2023-02-02T16:19:57.974Z,3.07
2023-02-02T16:22:25.735Z,3.14
2023-02-02T16:24:54.291Z,3.04
2023-02-02T16:27:23.872Z,3.03
2023-02-02T16:29:51.133Z,3.17
2023-02-02T16:32:31.602Z,3.25
2023-02-02T16:34:59.072Z,3.09
2023-02-02T16:37:32.504Z,3.08
2023-02-02T16:40:18.874Z,3.02
2023-02-02T16:42:45.747Z,2.88
2023-02-02T16:45:34.012Z,2.95
2023-02-02T16:48:33.453Z,2.88
2023-02-02T16:51:23.482Z,2.69
2023-02-02T16:54:13.922Z,2.73
2023-02-02T16:56:42.297Z,2.78
2023-02-02T16:59:18.143Z,2.83
2023-02-02T17:01:49.180Z,2.75
2023-02-02T17:04:24.088Z,2.66
2023-02-02T17:06:53.168Z,2.75
2023-02-02T17:09:27.644Z,2.71
2023-02-02T17:11:55.558Z,2.73
2023-02-02T17:14:33.102Z,2.74
2023-02-02T17:17:00.407Z,2.63
2023-02-02T17:19:30.468Z,2.30
2023-02-02T17:21:59.840Z,2.42
2023-02-02T17:24:27.149Z,2.31
2023-02-02T17:26:54.289Z,2.11
2023-02-02T17:29:21.854Z,2.36
2023-02-02T17:31:48.752Z,2.38
2023-02-02T17:34:15.770Z,2.52
2023-02-02T17:36:43.389Z,2.41
2023-02-02T17:39:11.668Z,2.32
2023-02-02T17:41:39.356Z,2.45
2023-02-02T17:44:06.987Z,2.37
2023-02-02T17:46:35.137Z,2.47
2023-02-02T17:49:02.211Z,2.38
2023-02-02T17:51:38.607Z,2.43
2023-02-02T17:54:09.172Z,2.23
2023-02-02T17:56:35.972Z,2.27
2023-02-02T17:59:02.815Z,2.33
2023-02-02T18:01:29.713Z,2.39
2023-02-02T18:03:56.567Z,2.41
2023-02-02T18:06:26.422Z,2.44
2023-02-02T18:08:53.451Z,2.49
2023-02-02T18:11:20.307Z,2.48
2023-02-02T18:13:47.210Z,2.52
2023-02-02T18:16:14.108Z,2.55
2023-02-02T18:18:41.034Z,2.52
2023-02-02T18:21:09.756Z,2.45
2023-02-02T18:23:37.558Z,2.20
2023-02-02T18:26:10.399Z,2.39
2023-02-02T18:28:38.308Z,2.42
2023-02-02T18:31:09.293Z,2.40
2023-02-02T18:33:37.257Z,2.41
2023-02-02T18:36:12.099Z,2.48
2023-02-02T18:38:39.592Z,2.46
2023-02-02T18:41:06.461Z,2.45
2023-02-02T18:43:33.508Z,2.39
2023-02-02T18:46:01.690Z,2.40
2023-02-02T18:48:29.564Z,2.19
2023-02-02T18:50:56.479Z,2.20
2023-02-02T18:53:23.489Z,2.09
2023-02-02T18:55:50.316Z,2.13
2023-02-02T18:58:17.232Z,2.03
2023-02-02T19:00:50.395Z,2.06
2023-02-02T19:03:17.553Z,2.10
2023-02-02T19:06:03.059Z,2.06
2023-02-02T19:08:30.394Z,2.13
2023-02-02T19:11:00.640Z,2.15
2023-02-02T19:13:28.930Z,2.10
2023-02-02T19:15:55.936Z,2.18
2023-02-02T19:18:23.770Z,2.24
2023-02-02T19:20:51.742Z,2.22
2023-02-02T19:23:23.447Z,2.27
2023-02-02T19:25:51.892Z,2.27
2023-02-02T19:28:27.345Z,2.19
2023-02-02T19:30:55.422Z,2.07
2023-02-02T19:33:34.131Z,2.11
2023-02-02T19:36:01.069Z,2.16
2023-02-02T19:38:29.605Z,2.18
2023-02-02T19:40:56.508Z,2.03
2023-02-02T19:43:30.156Z,2.09
2023-02-02T19:45:59.321Z,2.04
2023-02-02T19:48:27.600Z,1.96
2023-02-02T19:50:55.929Z,1.94
2023-02-02T19:53:24.465Z,1.87
2023-02-02T19:55:52.053Z,1.76
2023-02-02T19:58:23.569Z,1.60
2023-02-02T20:00:51.314Z,1.56
2023-02-02T20:03:18.270Z,1.57
2023-02-02T20:05:49.551Z,1.63
2023-02-02T20:08:25.716Z,1.65
2023-02-02T20:10:58.328Z,1.57
2023-02-02T20:13:34.234Z,1.64
2023-02-02T20:16:04.316Z,1.66
2023-02-02T20:18:42.775Z,1.61
2023-02-02T20:21:17.504Z,1.36
2023-02-02T20:23:45.297Z,1.44
2023-02-02T20:26:34.416Z,1.33
2023-02-02T20:29:13.032Z,1.25
2023-02-02T20:31:40.083Z,1.39
2023-02-02T20:34:25.359Z,1.44
2023-02-02T20:36:53.363Z,1.42
2023-02-02T20:39:28.063Z,1.35
2023-02-02T20:41:56.657Z,1.33
2023-02-02T20:44:25.742Z,1.24
2023-02-02T20:46:52.862Z,1.22
2023-02-02T20:49:22.462Z,0.99
2023-02-02T20:51:49.464Z,1.14
2023-02-02T20:54:16.301Z,1.25
2023-02-02T20:56:43.285Z,1.29
2023-02-02T20:59:10.102Z,1.27
2023-02-02T21:01:37.055Z,1.39
2023-02-02T21:04:07.224Z,1.41
2023-02-02T21:06:34.678Z,1.50
2023-02-02T21:09:05.604Z,1.35
2023-02-02T21:11:33.146Z,1.31
2023-02-02T21:14:00.490Z,1.16
2023-02-02T21:16:27.712Z,1.27
2023-02-02T21:18:55.062Z,1.30
2023-02-02T21:21:22.896Z,1.09
2023-02-02T21:23:51.613Z,1.18
2023-02-02T21:26:20.799Z,1.27
2023-02-02T21:28:48.361Z,1.25
2023-02-02T21:31:16.424Z,1.29
2023-02-02T21:33:44.212Z,1.28
2023-02-02T21:36:29.676Z,1.27
2023-02-02T21:39:02.059Z,1.15
2023-02-02T21:41:30.438Z,1.10
2023-02-02T21:43:58.610Z,1.02
2023-02-02T21:46:29.702Z,1.04
2023-02-02T21:48:56.619Z,1.01
2023-02-02T21:51:34.252Z,1.01
2023-02-02T21:54:13.381Z,0.90
2023-02-02T21:56:40.720Z,0.89
2023-02-02T21:59:11.915Z,0.94
2023-02-02T22:01:42.458Z,0.78
2023-02-02T22:04:18.554Z,0.87
2023-02-02T22:06:46.841Z,0.85
2023-02-02T22:09:13.666Z,0.90
2023-02-02T22:12:00.885Z,0.72
2023-02-02T22:14:40.783Z,0.71
2023-02-02T22:17:17.433Z,0.71
2023-02-02T22:19:44.475Z,0.61
2023-02-02T22:22:22.156Z,0.51
2023-02-02T22:25:07.672Z,0.39
2023-02-02T22:27:54.869Z,0.36
2023-02-02T22:30:41.000Z,0.45
2023-02-02T22:33:09.571Z,0.30
2023-02-02T22:35:36.837Z,0.44
2023-02-02T22:38:04.040Z,0.50
2023-02-02T22:40:34.308Z,0.43
2023-02-02T22:43:05.901Z,0.36
2023-02-02T22:45:32.955Z,0.45
2023-02-02T22:48:00.139Z,0.43
2023-02-02T22:50:28.609Z,0.46
2023-02-02T22:52:55.877Z,0.35
2023-02-02T22:55:22.810Z,0.20
2023-02-02T22:57:49.930Z,0.30
2023-02-02T23:00:18.910Z,0.31
2023-02-02T23:02:45.775Z,0.34
2023-02-02T23:05:13.705Z,0.40
2023-02-02T23:07:44.112Z,0.35
2023-02-02T23:10:12.501Z,0.05
2023-02-02T23:12:40.106Z,0.28
2023-02-02T23:15:07.504Z,0.25
2023-02-02T23:17:35.507Z,0.30
2023-02-02T23:20:05.886Z,0.23
2023-02-02T23:22:32.840Z,0.19
2023-02-02T23:25:01.629Z,0.28
2023-02-02T23:27:28.450Z,0.31
2023-02-02T23:29:55.348Z,0.24
2023-02-02T23:32:22.153Z,0.24
2023-02-02T23:34:49.223Z,0.23
2023-02-02T23:37:16.146Z,0.24
2023-02-02T23:39:43.150Z,0.27
2023-02-02T23:42:09.937Z,0.25
2023-02-02T23:44:36.807Z,0.26
2023-02-02T23:47:04.253Z,0.42
2023-02-02T23:49:31.831Z,0.25
2023-02-02T23:51:58.912Z,0.30
2023-02-02T23:54:26.148Z,0.33
2023-02-02T23:56:53.069Z,0.31
2023-02-02T23:59:19.952Z,0.26
